Time;durP1;ratioP1;P1;durP2;ratioP2;P2;SDS_P1;SDS_P2;PMS_P1;PMS_P2;Temp;Humidity;BMP_temperature;BMP_pressure;BME280_temperature;BME280_humidity;BME280_pressure;Samples;Min_cycle;Max_cycle;Signal;HPM_P1;HPM_P2
2022/03/17 00:00:20;;;;;;;21.33;14.80;;;;;;;6.94;76.43;102222.31;5057659;28;20264;-67
2022/03/17 00:02:46;;;;;;;21.23;16.23;;;;;;;7.19;75.58;102218.28;5057105;28;20169;-66
2022/03/17 00:05:12;;;;;;;24.63;16.40;;;;;;;7.32;75.13;102210.28;5058564;28;20169;-66
2022/03/17 00:07:41;;;;;;;24.40;16.40;;;;;;;7.16;75.30;102218.16;5057759;28;20425;-67
2022/03/17 00:10:14;;;;;;;27.87;17.10;;;;;;;7.25;75.63;102215.97;5057749;28;20426;-66
2022/03/17 00:12:39;;;;;;;23.97;15.53;;;;;;;7.24;75.37;102211.63;5057691;28;20415;-67
2022/03/17 00:15:05;;;;;;;24.00;16.97;;;;;;;7.00;75.41;102220.00;5057964;28;20797;-65
2022/03/17 00:17:30;;;;;;;24.10;16.33;;;;;;;7.00;76.46;102208.75;5057894;28;20201;-66
2022/03/17 00:19:56;;;;;;;25.33;16.50;;;;;;;6.89;76.55;102213.41;5060612;28;20181;-66
2022/03/17 00:22:21;;;;;;;23.90;15.03;;;;;;;7.16;75.78;102215.56;5061768;28;20169;-66
2022/03/17 00:24:46;;;;;;;21.90;16.10;;;;;;;7.03;76.57;102203.69;5062146;28;20510;-66
2022/03/17 00:27:12;;;;;;;28.63;18.60;;;;;;;7.56;74.97;102210.53;5061665;28;20268;-66
2022/03/17 00:29:39;;;;;;;23.50;15.27;;;;;;;6.47;77.10;102218.25;5061444;28;20265;-65
2022/03/17 00:32:06;;;;;;;33.13;18.80;;;;;;;7.07;76.88;102205.63;5062099;28;20197;-68
2022/03/17 00:34:31;;;;;;;32.87;19.50;;;;;;;6.79;76.95;102216.38;5061490;28;20423;-66
2022/03/17 00:36:57;;;;;;;25.90;17.80;;;;;;;6.61;77.32;102206.00;5061468;28;20538;-66
2022/03/17 00:39:23;;;;;;;27.83;17.63;;;;;;;6.53;77.82;102203.00;5061924;28;20523;-65
2022/03/17 00:41:48;;;;;;;30.77;20.30;;;;;;;6.99;77.40;102201.78;5060750;28;20177;-65
2022/03/17 00:44:14;;;;;;;26.93;17.70;;;;;;;6.71;77.58;102200.44;5061396;28;20419;-66
2022/03/17 00:46:40;;;;;;;31.83;19.57;;;;;;;6.68;77.81;102216.72;5061940;28;20172;-66
2022/03/17 00:49:05;;;;;;;27.77;18.07;;;;;;;6.75;77.73;102199.75;5061291;28;20420;-67
2022/03/17 00:51:31;;;;;;;30.03;20.30;;;;;;;7.01;77.59;102195.84;5061340;28;20719;-65
2022/03/17 00:53:56;;;;;;;31.90;21.27;;;;;;;7.16;76.58;102187.91;5061667;28;20173;-67
2022/03/17 00:56:22;;;;;;;34.10;21.33;;;;;;;6.82;77.67;102181.13;5061245;28;20209;-67
2022/03/17 00:58:48;;;;;;;32.07;21.17;;;;;;;7.05;77.95;102189.13;5061131;28;20523;-67
2022/03/17 01:01:15;;;;;;;36.50;23.10;;;;;;;7.04;78.03;102182.16;5061070;28;20312;-66
2022/03/17 01:03:41;;;;;;;38.90;22.13;;;;;;;6.65;78.92;102180.28;5061214;28;20419;-67
2022/03/17 01:06:07;;;;;;;34.97;22.80;;;;;;;6.64;79.46;102178.50;5061157;28;20514;-68
2022/03/17 01:08:32;;;;;;;36.93;23.23;;;;;;;6.70;79.14;102181.41;5060781;28;20549;-67
2022/03/17 01:10:57;;;;;;;36.37;22.80;;;;;;;6.33;79.71;102178.69;5061054;28;20158;-66
2022/03/17 01:13:23;;;;;;;35.97;21.90;;;;;;;6.47;79.90;102193.25;5061274;28;20432;-66
2022/03/17 01:15:48;;;;;;;34.90;23.77;;;;;;;6.74;79.38;102192.84;5060742;28;20170;-66
2022/03/17 01:18:13;;;;;;;33.53;22.10;;;;;;;6.72;78.75;102179.81;5060584;28;20180;-66
2022/03/17 01:20:39;;;;;;;39.80;23.83;;;;;;;6.53;80.11;102172.78;5061252;28;20180;-66
2022/03/17 01:23:04;;;;;;;41.07;24.33;;;;;;;6.36;80.37;102169.38;5060612;28;20181;-67
2022/03/17 01:25:30;;;;;;;39.10;24.07;;;;;;;7.02;78.31;102168.22;5060765;28;20177;-67
2022/03/17 01:27:57;;;;;;;40.40;25.40;;;;;;;7.08;78.15;102171.09;5060643;28;20168;-66
2022/03/17 01:30:22;;;;;;;43.07;24.63;;;;;;;6.46;79.64;102169.84;5059011;28;20829;-65
2022/03/17 01:32:48;;;;;;;40.00;25.10;;;;;;;6.82;79.37;102165.56;5060415;28;20424;-66
2022/03/17 01:35:13;;;;;;;40.83;26.03;;;;;;;6.84;78.66;102163.06;5061230;28;20527;-66
2022/03/17 01:37:38;;;;;;;44.80;24.80;;;;;;;6.84;78.54;102153.56;5060389;28;20262;-66
2022/03/17 01:40:05;;;;;;;44.93;27.67;;;;;;;6.60;79.43;102157.56;5060513;28;20177;-66
2022/03/17 01:42:30;;;;;;;42.17;26.23;;;;;;;6.56;80.06;102161.69;5060747;28;20177;-66
2022/03/17 01:44:55;;;;;;;39.10;23.70;;;;;;;6.32;80.91;102162.28;5060372;28;20412;-66
2022/03/17 01:47:27;;;;;;;38.40;25.40;;;;;;;6.82;79.49;102162.06;5060209;28;20178;-65
2022/03/17 01:49:54;;;;;;;43.40;25.30;;;;;;;6.77;78.77;102159.28;5060703;28;20170;-67
2022/03/17 01:52:19;;;;;;;34.70;22.53;;;;;;;6.48;79.56;102160.44;5060007;28;20431;-65
2022/03/17 01:54:50;;;;;;;43.23;26.50;;;;;;;7.07;78.70;102144.25;5060338;28;20509;-67
2022/03/17 01:57:16;;;;;;;44.57;28.70;;;;;;;6.89;79.17;102151.22;5060361;28;20251;-65
2022/03/17 01:59:42;;;;;;;41.20;27.10;;;;;;;7.01;78.92;102145.69;5059965;28;20685;-65
2022/03/17 02:02:10;;;;;;;41.60;27.33;;;;;;;6.87;78.72;102148.53;5059890;28;20869;-65
2022/03/17 02:04:36;;;;;;;47.27;27.70;;;;;;;6.86;79.04;102140.66;5060434;28;20180;-65
2022/03/17 02:07:05;;;;;;;45.93;28.90;;;;;;;7.04;78.87;102138.94;5059755;28;20686;-65
2022/03/17 02:09:30;;;;;;;45.30;28.10;;;;;;;6.86;80.02;102130.28;5059787;28;20847;-64
2022/03/17 02:14:53;;;;;;;53.80;28.90;;;;;;;6.60;80.66;102123.88;5059755;28;20211;-65
2022/03/17 02:17:19;;;;;;;46.40;28.87;;;;;;;6.85;80.72;102123.34;5059561;28;20467;-65
2022/03/17 02:19:45;;;;;;;41.70;29.40;;;;;;;6.60;79.88;102106.63;5059382;28;20473;-64
2022/03/17 02:22:15;;;;;;;42.53;26.87;;;;;;;6.59;80.14;102107.47;5059627;28;20507;-67
2022/03/17 02:27:30;;;;;;;45.80;29.30;;;;;;;6.70;79.96;102108.84;5059737;28;20687;-66
2022/03/17 02:29:55;;;;;;;45.53;30.33;;;;;;;6.61;80.00;102107.53;5059391;28;20493;-65
2022/03/17 02:32:21;;;;;;;45.20;29.07;;;;;;;6.78;79.79;102097.94;5059246;28;20424;-65
2022/03/17 02:34:46;;;;;;;48.67;29.83;;;;;;;6.85;79.71;102100.03;5059197;28;20316;-65
2022/03/17 02:37:12;;;;;;;49.67;30.33;;;;;;;6.63;79.19;102099.03;5059560;28;20198;-65
2022/03/17 02:39:38;;;;;;;47.70;29.40;;;;;;;6.60;79.76;102095.38;5059101;28;20531;-65
2022/03/17 02:42:04;;;;;;;45.53;29.80;;;;;;;6.86;79.80;102088.81;5058366;28;20177;-66
2022/03/17 02:44:29;;;;;;;48.37;30.70;;;;;;;6.91;78.88;102070.09;5059478;28;20412;-67
2022/03/17 02:46:55;;;;;;;46.00;28.80;;;;;;;7.16;78.45;102072.91;5059196;28;20219;-66
2022/03/17 02:49:20;;;;;;;43.17;28.70;;;;;;;7.10;78.05;102073.50;5058954;28;20520;-66
2022/03/17 02:51:46;;;;;;;48.63;31.40;;;;;;;6.85;78.07;102067.22;5059369;28;20166;-65
2022/03/17 02:54:11;;;;;;;46.73;28.60;;;;;;;6.66;79.23;102068.06;5058948;28;20304;-66
2022/03/17 02:56:37;;;;;;;48.13;30.57;;;;;;;6.77;79.71;102065.09;5058758;28;20558;-65
2022/03/17 02:59:02;;;;;;;45.27;30.07;;;;;;;6.74;79.36;102053.75;5059111;28;20173;-66
2022/03/17 03:01:27;;;;;;;43.60;28.60;;;;;;;6.86;78.83;102056.03;5058767;28;20629;-66
2022/03/17 03:03:53;;;;;;;51.27;32.37;;;;;;;6.90;78.83;102059.63;5058618;28;20182;-66
2022/03/17 03:06:18;;;;;;;45.60;28.90;;;;;;;6.77;79.21;102053.00;5059012;28;20515;-67
2022/03/17 03:08:44;;;;;;;53.40;33.63;;;;;;;6.73;79.42;102067.50;5058358;28;20408;-67
2022/03/17 03:11:09;;;;;;;48.63;32.40;;;;;;;6.86;79.06;102062.91;5058591;28;20180;-67
2022/03/17 03:13:36;;;;;;;49.00;30.30;;;;;;;6.70;79.65;102075.16;5059035;28;20166;-66
2022/03/17 03:16:02;;;;;;;49.97;30.40;;;;;;;6.81;79.04;102054.94;5058546;28;20196;-66
2022/03/17 03:18:27;;;;;;;47.87;31.27;;;;;;;6.95;78.83;102055.53;5058417;28;20416;-67
2022/03/17 03:20:53;;;;;;;45.97;30.93;;;;;;;7.21;77.95;102053.25;5058934;28;20245;-66
2022/03/17 03:23:18;;;;;;;49.03;30.87;;;;;;;6.93;78.50;102049.41;5058360;28;20181;-65
2022/03/17 03:25:43;;;;;;;41.20;28.10;;;;;;;6.42;79.81;102035.81;5058360;28;20178;-66
2022/03/17 03:28:09;;;;;;;45.47;27.57;;;;;;;6.72;79.76;102032.06;5058633;28;20573;-65
2022/03/17 03:30:36;;;;;;;45.20;31.20;;;;;;;6.64;79.39;102035.09;5058295;28;20292;-65
2022/03/17 03:33:03;;;;;;;47.40;32.80;;;;;;;6.76;78.96;102034.81;5058194;28;20420;-66
2022/03/17 03:38:12;;;;;;;51.10;33.40;;;;;;;6.96;79.36;102027.94;5058110;28;20566;-65
2022/03/17 03:40:37;;;;;;;45.20;29.30;;;;;;;6.60;79.95;102028.88;5058229;28;20451;-67
2022/03/17 03:43:03;;;;;;;46.90;31.57;;;;;;;6.82;79.63;102024.69;5057415;28;20272;-67
2022/03/17 03:45:28;;;;;;;51.37;32.43;;;;;;;6.85;79.00;102030.03;5058002;28;20173;-66
2022/03/17 03:47:53;;;;;;;44.57;28.97;;;;;;;6.69;78.91;102029.31;5057411;28;20197;-66
2022/03/17 03:50:19;;;;;;;50.97;31.57;;;;;;;6.68;79.16;102019.75;5057295;28;20184;-67
2022/03/17 03:52:44;;;;;;;44.07;31.07;;;;;;;6.84;78.58;102021.34;5058028;28;20173;-65
2022/03/17 03:55:09;;;;;;;47.53;30.40;;;;;;;6.61;78.92;102014.25;5058097;28;20162;-65
2022/03/17 03:57:35;;;;;;;51.60;32.57;;;;;;;6.70;79.08;102022.44;5057611;28;20212;-65
2022/03/17 04:00:00;;;;;;;42.20;30.00;;;;;;;6.83;78.98;102016.09;5057878;28;20173;-65
2022/03/17 04:02:25;;;;;;;44.90;31.97;;;;;;;6.86;78.42;102016.25;5057683;28;20251;-65
2022/03/17 04:04:51;;;;;;;38.53;24.73;;;;;;;6.30;79.01;102012.81;5057810;28;20265;-67
2022/03/17 04:07:18;;;;;;;47.00;29.57;;;;;;;6.60;79.24;102005.56;5058240;28;20181;-66
2022/03/17 04:09:43;;;;;;;47.13;32.07;;;;;;;6.78;78.27;101997.78;5057694;28;20180;-65
2022/03/17 04:12:13;;;;;;;48.10;31.30;;;;;;;6.73;78.30;102001.84;5057690;28;20419;-66
2022/03/17 04:14:39;;;;;;;46.90;32.87;;;;;;;7.05;77.39;102008.50;5058443;28;20535;-66
2022/03/17 04:17:04;;;;;;;43.87;29.70;;;;;;;6.50;78.73;101987.84;5057783;28;20468;-66
2022/03/17 04:19:30;;;;;;;50.57;32.07;;;;;;;6.88;78.55;101991.28;5057615;28;20494;-65
2022/03/17 04:21:56;;;;;;;46.40;32.20;;;;;;;7.16;77.60;101992.53;5058213;28;20226;-65
2022/03/17 04:24:21;;;;;;;44.40;29.67;;;;;;;6.64;78.25;101991.94;5057678;28;20547;-65
2022/03/17 04:26:47;;;;;;;49.07;32.70;;;;;;;6.80;77.68;101988.34;5057609;28;20257;-66
2022/03/17 04:29:13;;;;;;;48.47;33.37;;;;;;;6.83;77.46;101991.09;5057870;28;20165;-66
2022/03/17 04:31:40;;;;;;;45.43;28.53;;;;;;;6.57;77.67;101982.13;5057656;28;20194;-66
2022/03/17 04:34:06;;;;;;;48.37;29.83;;;;;;;6.93;77.05;101994.97;5057581;28;20412;-65
2022/03/17 04:36:32;;;;;;;47.47;31.87;;;;;;;6.88;77.46;101991.28;5057690;28;20474;-65
2022/03/17 04:38:58;;;;;;;41.40;28.67;;;;;;;6.60;76.91;101981.38;5057384;28;20452;-66
2022/03/17 04:41:24;;;;;;;47.23;31.73;;;;;;;6.78;77.23;101981.31;5057353;28;20451;-66
2022/03/17 04:43:49;;;;;;;54.50;32.13;;;;;;;7.00;77.18;101973.69;5057822;28;20404;-65
2022/03/17 04:46:14;;;;;;;43.67;28.47;;;;;;;6.70;78.33;101968.91;5057880;28;20166;-65
2022/03/17 04:48:40;;;;;;;46.57;33.00;;;;;;;6.70;78.33;101975.81;5057409;28;20196;-66
2022/03/17 04:51:05;;;;;;;47.73;33.60;;;;;;;6.82;77.83;101978.03;5058023;28;20216;-66
2022/03/17 04:53:32;;;;;;;43.33;28.80;;;;;;;6.67;77.31;101958.41;5057449;28;20184;-66
2022/03/17 04:56:11;;;;;;;47.93;34.03;;;;;;;6.88;77.56;101970.56;5057362;28;20189;-66
2022/03/17 04:58:40;;;;;;;45.70;32.17;;;;;;;6.89;77.12;101975.81;5057256;28;20415;-66
2022/03/17 05:01:06;;;;;;;46.20;31.97;;;;;;;6.71;77.23;101981.06;5057210;28;20463;-67
2022/03/17 05:03:32;;;;;;;43.37;28.80;;;;;;;6.61;77.80;101975.38;5058036;28;20613;-65
2022/03/17 05:05:58;;;;;;;41.20;27.77;;;;;;;6.50;78.13;101977.47;5058435;28;20166;-67
2022/03/17 05:08:24;;;;;;;44.53;30.00;;;;;;;6.62;77.88;101959.03;5060758;28;20518;-66
2022/03/17 05:10:50;;;;;;;42.90;31.97;;;;;;;6.76;77.23;101965.69;5061424;28;20491;-65
2022/03/17 05:13:19;;;;;;;43.80;28.63;;;;;;;6.51;77.32;101968.91;5060866;28;20174;-65
2022/03/17 05:15:46;;;;;;;46.53;30.60;;;;;;;6.71;77.74;101968.09;5060992;28;20530;-66
2022/03/17 05:18:12;;;;;;;45.30;29.67;;;;;;;6.72;77.35;101967.28;5061103;28;20455;-66
2022/03/17 05:20:40;;;;;;;48.17;32.20;;;;;;;6.89;76.85;101967.16;5060055;28;20469;-66
2022/03/17 05:23:08;;;;;;;43.00;30.33;;;;;;;6.65;77.02;101974.69;5060030;28;20169;-66
2022/03/17 05:25:33;;;;;;;45.60;33.40;;;;;;;7.10;76.08;101964.59;5061118;28;20404;-66
2022/03/17 05:27:59;;;;;;;47.73;32.53;;;;;;;6.82;76.52;101970.25;5060412;28;20423;-67
2022/03/17 05:30:26;;;;;;;45.57;29.90;;;;;;;6.72;76.65;101972.47;5060432;28;20205;-66
2022/03/17 05:32:51;;;;;;;44.33;32.17;;;;;;;7.00;76.05;101976.28;5061515;28;20447;-66
2022/03/17 05:35:17;;;;;;;44.07;33.30;;;;;;;6.90;77.24;101969.81;5060511;28;20825;-66
2022/03/17 05:37:42;;;;;;;44.60;31.87;;;;;;;7.12;76.82;101980.22;5060231;28;20578;-66
2022/03/17 05:40:13;;;;;;;47.33;33.67;;;;;;;7.21;76.09;101967.66;5060869;28;20182;-66
2022/03/17 05:42:39;;;;;;;39.53;29.37;;;;;;;6.82;75.98;101984.13;5060185;28;20221;-65
2022/03/17 05:45:04;;;;;;;48.17;33.63;;;;;;;6.84;76.43;101966.91;5060280;28;20455;-66
2022/03/17 05:47:40;;;;;;;47.07;34.37;;;;;;;7.15;76.13;101960.50;5060644;28;20196;-66
2022/03/17 05:50:09;;;;;;;50.80;35.10;;;;;;;7.22;76.12;101975.50;5060120;28;20184;-66
2022/03/17 05:52:38;;;;;;;45.10;31.87;;;;;;;6.99;75.92;101969.31;5060168;28;20475;-65
2022/03/17 05:55:04;;;;;;;50.33;34.40;;;;;;;7.25;75.78;101970.47;5060089;28;20794;-65
2022/03/17 05:57:29;;;;;;;53.43;33.53;;;;;;;7.21;75.82;101959.88;5059671;28;20550;-66
2022/03/17 05:59:55;;;;;;;49.63;33.40;;;;;;;7.11;75.55;101968.97;5060470;28;20531;-66
2022/03/17 06:02:20;;;;;;;49.47;34.10;;;;;;;7.27;75.23;101980.03;5059811;28;20236;-66
2022/03/17 06:04:46;;;;;;;45.83;31.97;;;;;;;7.15;74.83;101980.38;5059840;28;20170;-65
2022/03/17 06:07:11;;;;;;;47.90;34.97;;;;;;;7.10;75.68;101993.13;5060235;28;20169;-65
2022/03/17 06:09:38;;;;;;;45.73;33.10;;;;;;;7.40;74.84;101985.78;5059624;28;20265;-65
2022/03/17 06:12:05;;;;;;;44.00;33.93;;;;;;;7.55;73.94;101982.97;5059531;28;20211;-66
2022/03/17 06:14:32;;;;;;;50.13;32.80;;;;;;;7.25;74.78;101969.56;5059349;28;20487;-66
2022/03/17 06:16:58;;;;;;;47.23;33.27;;;;;;;7.33;74.47;101963.00;5059385;28;20601;-66
2022/03/17 06:19:23;;;;;;;47.93;32.57;;;;;;;7.45;73.82;101962.63;5059510;28;20416;-65
2022/03/17 06:21:48;;;;;;;49.10;33.67;;;;;;;7.35;74.48;101976.06;5059947;28;20816;-66
2022/03/17 06:24:14;;;;;;;47.27;34.27;;;;;;;7.44;74.01;101967.75;5059562;28;20205;-65
2022/03/17 06:26:39;;;;;;;47.23;31.60;;;;;;;7.31;73.92;101976.75;5059614;28;20447;-66
2022/03/17 06:29:04;;;;;;;46.97;33.60;;;;;;;7.68;73.43;101973.97;5059648;28;20166;-65
2022/03/17 06:31:30;;;;;;;46.30;33.23;;;;;;;7.61;73.29;101978.84;5059328;28;20197;-65
2022/03/17 06:33:55;;;;;;;47.40;33.87;;;;;;;7.84;72.75;101966.81;5058280;28;20384;-66
2022/03/17 06:36:22;;;;;;;48.20;32.33;;;;;;;7.67;72.98;101968.72;5058835;28;20578;-66
2022/03/17 06:38:48;;;;;;;48.50;34.73;;;;;;;7.66;72.63;101975.63;5059002;28;20221;-64
2022/03/17 06:41:13;;;;;;;48.77;34.70;;;;;;;7.71;73.00;101966.31;5058922;28;20443;-67
2022/03/17 06:43:38;;;;;;;44.53;32.70;;;;;;;7.57;73.06;101972.66;5059736;28;20170;-66
2022/03/17 06:46:04;;;;;;;45.20;34.00;;;;;;;7.72;72.09;101965.47;5059221;28;20267;-64
2022/03/17 06:48:29;;;;;;;44.70;31.23;;;;;;;7.50;72.81;101975.81;5058996;28;20414;-64
2022/03/17 06:50:55;;;;;;;44.53;32.90;;;;;;;7.40;73.22;101965.03;5059475;28;20409;-63
2022/03/17 06:53:20;;;;;;;46.27;34.40;;;;;;;7.79;73.10;101966.63;5059002;28;20235;-64
2022/03/17 06:55:45;;;;;;;43.37;32.73;;;;;;;7.67;72.90;101973.91;5058909;28;20546;-63
2022/03/17 06:58:11;;;;;;;46.07;34.47;;;;;;;7.69;72.67;101967.97;5059186;28;20292;-63
2022/03/17 07:00:36;;;;;;;50.80;35.47;;;;;;;7.92;72.20;101975.81;5058235;28;20192;-64
2022/03/17 07:03:02;;;;;;;44.87;31.83;;;;;;;7.67;71.98;101972.22;5057862;28;20557;-63
2022/03/17 07:05:28;;;;;;;53.20;34.93;;;;;;;7.82;72.10;101965.84;5058999;28;20188;-64
2022/03/17 07:07:53;;;;;;;48.63;33.60;;;;;;;7.89;72.25;101967.91;5058022;28;20693;-64
2022/03/17 07:10:18;;;;;;;50.30;33.77;;;;;;;7.60;72.98;101964.97;5058648;28;20585;-64
2022/03/17 07:12:44;;;;;;;45.10;33.97;;;;;;;7.75;72.16;101968.22;5059230;28;20169;-65
2022/03/17 07:15:10;;;;;;;45.57;32.93;;;;;;;8.01;71.62;101972.69;5058538;28;20177;-64
2022/03/17 07:17:39;;;;;;;48.60;32.83;;;;;;;8.18;71.42;101978.56;5058397;28;20201;-63
2022/03/17 07:20:08;;;;;;;51.63;35.40;;;;;;;8.06;71.19;101973.75;5058679;28;20412;-65
2022/03/17 07:22:34;;;;;;;47.53;34.23;;;;;;;8.13;71.24;101983.53;5058303;28;20651;-66
2022/03/17 07:24:59;;;;;;;45.70;33.90;;;;;;;8.06;71.73;101989.34;5058163;28;20423;-65
2022/03/17 07:27:25;;;;;;;44.50;34.07;;;;;;;7.96;71.83;101987.22;5058163;28;20250;-66
2022/03/17 07:29:51;;;;;;;51.40;36.13;;;;;;;8.01;73.26;101986.56;5057305;28;20290;-66
2022/03/17 07:32:18;;;;;;;46.50;33.40;;;;;;;7.77;73.80;101996.84;5058319;28;20165;-66
2022/03/17 07:34:44;;;;;;;45.03;33.77;;;;;;;7.47;74.18;101996.41;5058453;28;20438;-66
2022/03/17 07:37:10;;;;;;;49.23;35.77;;;;;;;7.87;73.62;102000.69;5057927;28;20741;-67
2022/03/17 07:39:35;;;;;;;45.40;32.57;;;;;;;7.77;73.39;101996.84;5056314;28;20412;-66
2022/03/17 07:42:00;;;;;;;44.80;32.60;;;;;;;7.76;73.58;102008.91;5055967;28;20181;-65
2022/03/17 07:44:28;;;;;;;50.50;37.07;;;;;;;7.98;73.24;102002.00;5057489;28;20510;-64
2022/03/17 07:46:54;;;;;;;52.70;37.33;;;;;;;7.95;73.24;102003.59;5050503;28;20427;-64
2022/03/17 07:49:20;;;;;;;48.20;36.80;;;;;;;8.05;72.93;102009.25;5054358;28;20800;-65
2022/03/17 07:51:46;;;;;;;46.60;34.00;;;;;;;7.96;73.01;102005.38;5049270;28;20503;-65
2022/03/17 07:54:11;;;;;;;47.93;35.07;;;;;;;8.06;72.17;102003.22;5057351;28;20450;-66
2022/03/17 07:56:37;;;;;;;44.83;33.87;;;;;;;8.33;71.42;102014.66;5057705;28;20462;-64
2022/03/17 07:59:02;;;;;;;48.40;36.23;;;;;;;8.41;71.08;102002.84;5056291;28;20166;-65
2022/03/17 08:01:28;;;;;;;47.43;34.90;;;;;;;7.98;72.53;102014.09;5057257;28;20236;-66
2022/03/17 08:03:54;;;;;;;49.57;35.30;;;;;;;7.98;72.44;102004.59;5057393;28;20181;-65
2022/03/17 08:06:19;;;;;;;49.27;35.50;;;;;;;8.30;71.45;102005.00;5055871;28;20185;-65
2022/03/17 08:08:46;;;;;;;48.83;35.90;;;;;;;8.29;71.09;102003.22;5040822;28;20507;-65
2022/03/17 08:11:11;;;;;;;48.83;35.00;;;;;;;8.09;71.97;102018.94;5055622;28;20177;-64
2022/03/17 08:13:37;;;;;;;49.93;36.30;;;;;;;8.13;72.35;102013.84;5053704;28;20446;-64
2022/03/17 08:16:02;;;;;;;48.20;35.07;;;;;;;8.35;71.49;102015.56;5055127;28;20161;-63
2022/03/17 08:18:29;;;;;;;47.60;35.53;;;;;;;8.26;71.97;102014.38;5057418;28;20185;-62
2022/03/17 08:20:54;;;;;;;47.43;34.97;;;;;;;8.07;71.47;102023.16;5057038;28;20169;-64
2022/03/17 08:23:21;;;;;;;48.57;35.30;;;;;;;8.34;70.95;102017.28;5054925;28;20706;-64
2022/03/17 08:25:48;;;;;;;49.00;35.47;;;;;;;8.68;70.17;102031.63;5049629;28;20162;-65
2022/03/17 08:28:13;;;;;;;44.93;34.30;;;;;;;8.25;71.13;102022.13;5052502;28;20667;-64
2022/03/17 08:30:39;;;;;;;50.07;36.03;;;;;;;8.62;70.57;102021.00;5056891;28;20443;-65
2022/03/17 08:33:05;;;;;;;48.03;35.70;;;;;;;8.42;70.29;102031.47;5057248;28;20169;-65
2022/03/17 08:35:30;;;;;;;45.77;34.60;;;;;;;8.47;70.46;102031.72;5056688;28;20173;-65
2022/03/17 08:37:59;;;;;;;48.53;35.90;;;;;;;8.57;69.72;102040.75;5057018;28;20288;-65
2022/03/17 08:40:24;;;;;;;47.10;36.63;;;;;;;8.24;70.70;102042.03;5054634;28;20170;-65
2022/03/17 08:42:50;;;;;;;47.93;34.77;;;;;;;8.45;70.31;102046.34;5060745;28;20702;-65
2022/03/17 08:50:44;;;;;;;46.73;35.70;;;;;;;8.57;70.42;102057.22;5060557;28;20475;-65
2022/03/17 08:53:10;;;;;;;47.87;34.53;;;;;;;8.61;70.45;102063.44;5059838;28;20412;-63
2022/03/17 08:55:36;;;;;;;51.37;35.57;;;;;;;8.77;70.35;102059.72;5060074;28;20422;-65
2022/03/17 08:58:02;;;;;;;44.93;35.13;;;;;;;8.71;71.16;102069.88;5055295;28;20202;-66
2022/03/17 09:00:27;;;;;;;46.70;34.23;;;;;;;8.50;70.88;102064.72;5060294;28;20794;-65
2022/03/17 09:02:55;;;;;;;47.70;37.40;;;;;;;8.89;70.55;102065.38;5060029;28;20431;-65
2022/03/17 09:05:20;;;;;;;47.10;35.97;;;;;;;8.89;71.06;102067.97;5060612;28;20251;-65
2022/03/17 09:07:46;;;;;;;45.43;35.27;;;;;;;8.73;71.40;102081.22;5060067;28;20455;-65
2022/03/17 09:10:11;;;;;;;47.83;36.20;;;;;;;8.71;71.20;102069.88;5059960;28;20657;-64
2022/03/17 09:12:38;;;;;;;49.67;36.30;;;;;;;9.00;71.10;102070.97;5060452;28;20261;-65
2022/03/17 09:15:04;;;;;;;45.17;35.03;;;;;;;8.79;71.03;102077.97;5059333;28;20288;-66
2022/03/17 09:17:30;;;;;;;47.23;35.43;;;;;;;8.81;71.99;102074.59;5059145;28;20466;-64
2022/03/17 09:19:55;;;;;;;51.63;38.40;;;;;;;8.86;71.88;102079.97;5058594;28;20718;-64
2022/03/17 09:22:21;;;;;;;45.27;36.53;;;;;;;9.33;71.02;102088.66;5054756;28;20201;-64
2022/03/17 09:24:48;;;;;;;51.37;36.60;;;;;;;8.86;71.95;102085.16;5057704;28;20447;-64
2022/03/17 09:27:14;;;;;;;46.87;35.30;;;;;;;8.82;72.87;102081.59;5042946;28;20253;-64
2022/03/17 09:29:40;;;;;;;49.70;36.37;;;;;;;9.26;71.85;102089.28;5059851;28;20479;-64
2022/03/17 09:32:07;;;;;;;49.90;36.67;;;;;;;9.06;72.29;102086.81;5051283;28;20455;-64
2022/03/17 09:34:47;;;;;;;45.27;34.13;;;;;;;9.26;72.05;102092.75;5057667;28;20430;-64
2022/03/17 09:37:13;;;;;;;46.03;35.03;;;;;;;9.31;72.03;102103.34;5057502;28;20543;-63
2022/03/17 09:39:47;;;;;;;47.23;35.40;;;;;;;9.75;70.85;102088.41;5057699;28;20436;-64
2022/03/17 09:42:15;;;;;;;47.07;35.93;;;;;;;9.89;70.17;102096.72;5057892;28;20446;-64
2022/03/17 09:44:41;;;;;;;46.67;35.97;;;;;;;9.38;72.64;102107.94;5059116;28;20424;-64
2022/03/17 09:47:10;;;;;;;44.60;36.27;;;;;;;9.05;72.94;102113.66;5058960;28;20408;-64
2022/03/17 09:49:37;;;;;;;44.87;36.57;;;;;;;9.52;73.24;102112.75;5056802;28;20439;-65
2022/03/17 09:52:10;;;;;;;48.67;36.93;;;;;;;9.81;71.85;102118.09;5058932;28;20765;-65
2022/03/17 09:54:35;;;;;;;46.93;36.30;;;;;;;9.68;72.55;102114.19;5059332;28;20431;-64
2022/03/17 09:57:01;;;;;;;47.53;37.07;;;;;;;9.57;72.95;102126.84;5059814;28;20459;-64
2022/03/17 09:59:26;;;;;;;43.53;34.30;;;;;;;9.54;72.69;102125.00;5059626;28;20188;-64
2022/03/17 10:01:52;;;;;;;42.20;33.17;;;;;;;9.40;73.24;102132.31;5059214;28;20267;-65
2022/03/17 10:04:18;;;;;;;47.10;36.00;;;;;;;9.64;73.36;102138.38;5059350;28;20181;-65
2022/03/17 10:06:43;;;;;;;44.70;36.13;;;;;;;9.26;74.87;102149.13;5048791;28;20256;-64
2022/03/17 10:09:09;;;;;;;46.00;35.40;;;;;;;9.43;74.54;102160.16;5058580;28;20458;-63
2022/03/17 10:11:37;;;;;;;48.90;36.70;;;;;;;9.96;73.79;102160.34;5058881;28;20181;-64
2022/03/17 10:14:05;;;;;;;47.20;36.17;;;;;;;9.63;73.43;102155.69;5058744;28;20257;-63
2022/03/17 10:16:31;;;;;;;45.20;35.63;;;;;;;9.68;75.75;102163.69;5058097;28;20738;-64
2022/03/17 10:18:57;;;;;;;45.80;36.23;;;;;;;9.40;75.69;102168.75;5059017;28;20424;-64
2022/03/17 10:21:27;;;;;;;45.70;35.07;;;;;;;9.34;76.26;102173.72;5058934;28;20424;-66
2022/03/17 10:24:03;;;;;;;48.50;36.80;;;;;;;9.59;75.91;102174.63;5056421;28;20435;-66
2022/03/17 10:26:33;;;;;;;45.70;36.07;;;;;;;9.72;76.36;102179.44;5055884;28;20502;-66
2022/03/17 10:29:04;;;;;;;48.57;36.73;;;;;;;9.49;77.03;102188.16;5058715;28;20496;-65
2022/03/17 10:31:29;;;;;;;45.50;36.30;;;;;;;9.76;76.90;102189.16;5058911;28;20854;-64
2022/03/17 10:33:55;;;;;;;43.40;36.50;;;;;;;9.84;76.57;102202.47;5057857;28;20465;-65
2022/03/17 10:36:21;;;;;;;50.33;39.40;;;;;;;9.94;76.52;102211.47;5057755;28;20251;-64
2022/03/17 10:38:56;;;;;;;48.70;37.60;;;;;;;10.09;76.36;102213.75;5057192;28;20174;-65
2022/03/17 10:41:22;;;;;;;50.60;37.90;;;;;;;9.36;78.46;102215.41;5053919;28;20437;-65
2022/03/17 10:43:47;;;;;;;46.03;37.20;;;;;;;9.33;79.68;102212.72;5055918;28;20508;-64
2022/03/17 10:46:16;;;;;;;46.80;37.37;;;;;;;9.69;78.59;102218.41;5057818;28;20220;-65
2022/03/17 10:49:05;;;;;;;47.90;36.00;;;;;;;9.37;79.12;102231.09;5058448;28;20177;-65
2022/03/17 10:51:44;;;;;;;49.60;37.80;;;;;;;9.30;80.48;102236.91;5058089;28;20463;-64
2022/03/17 10:54:19;;;;;;;50.30;36.83;;;;;;;9.61;79.87;102243.28;5051489;28;20512;-64
2022/03/17 10:57:00;;;;;;;53.50;38.23;;;;;;;9.47;80.26;102260.06;5050117;28;20478;-63
2022/03/17 10:59:39;;;;;;;50.13;37.13;;;;;;;9.01;81.75;102265.25;5056435;28;20904;-62
2022/03/17 11:02:08;;;;;;;46.50;36.60;;;;;;;9.13;82.22;102271.75;5056061;28;20797;-66
2022/03/17 11:04:36;;;;;;;48.30;35.03;;;;;;;8.74;82.74;102281.50;5056635;28;20431;-65
2022/03/17 11:07:04;;;;;;;49.40;35.73;;;;;;;9.14;83.24;102279.63;5057657;28;20423;-65
2022/03/17 11:09:30;;;;;;;42.27;34.17;;;;;;;8.71;84.09;102299.56;5057594;28;20436;-65
2022/03/17 11:11:56;;;;;;;34.30;25.50;;;;;;;8.40;84.81;102303.41;5057645;28;20687;-65
2022/03/17 11:14:23;;;;;;;26.10;22.53;;;;;;;8.49;84.29;102307.25;5054871;28;20562;-65
2022/03/17 11:16:50;;;;;;;27.23;22.03;;;;;;;8.96;83.44;102310.09;5057425;28;20205;-65
2022/03/17 11:19:19;;;;;;;28.03;21.00;;;;;;;8.91;82.38;102313.38;5056042;28;20439;-63
2022/03/17 11:21:46;;;;;;;24.57;19.80;;;;;;;9.02;81.24;102321.63;5048982;28;20433;-64
2022/03/17 11:24:22;;;;;;;23.27;17.93;;;;;;;8.94;80.02;102310.03;5057192;28;20427;-64
2022/03/17 11:26:47;;;;;;;24.00;18.40;;;;;;;9.38;80.68;102317.88;5054141;28;20712;-64